FLY weather

Finley Airport
New South Wales, Australia

Public forecast

Using degrees Celsius for public forecast. Weather courtesy of forecast.io.

Closest aviation weather report (METAR) to Finley Airport

Closest report is Wangaratta Airport, 58.1 nm (107.6 km) SE. Retrieved 2020/02/22 07:00 UTC (53 minutes ago):

YWGT 220700Z AUTO 01007KT 310V030 9999 // NCD 31/05 Q1017

Closest aviation forecast (TAF) to Finley Airport

Closest forecast is Wangaratta Airport, 58.1 nm (107.6 km) SE. Retrieved 2020-02-22 02:39 UTC (5 hours ago):

TAF TAF YWGT 220136Z 2202/2214 03008KT CAVOK FM220900 VRB03KT CAVOK